Time;durP1;ratioP1;P1;durP2;ratioP2;P2;SDS_P1;SDS_P2;PMS_P1;PMS_P2;Temp;Humidity;BMP_temperature;BMP_pressure;BME280_temperature;BME280_humidity;BME280_pressure;Samples;Min_cycle;Max_cycle;Signal;HPM_P1;HPM_P2
2023/04/18 00:02:05;;;;;;;;;;;;;;;15.54;63.47;101109.28;5070088;28;20381;-85
2023/04/18 00:04:32;;;;;;;;;;;;;;;15.47;63.83;101122.19;5071279;28;19912;-85
2023/04/18 00:06:58;;;;;;;;;;;;;;;15.50;63.52;101118.78;5069274;28;19916;-84
2023/04/18 00:09:24;;;;;;;;;;;;;;;15.48;63.71;101117.81;5053461;28;19912;-84
2023/04/18 00:11:49;;;;;;;;;;;;;;;15.49;63.66;101122.22;5071295;28;20342;-84
2023/04/18 00:14:15;;;;;;;;;;;;;;;15.53;63.31;101125.88;5070182;28;19939;-84
2023/04/18 00:16:41;;;;;;;;;;;;;;;15.53;63.19;101137.31;5068685;28;20309;-83
2023/04/18 00:19:07;;;;;;;;;;;;;;;15.50;63.63;101139.81;5066155;28;20007;-84
2023/04/18 00:21:33;;;;;;;;;;;;;;;15.49;63.55;101114.31;5053361;28;20382;-83
2023/04/18 00:23:58;;;;;;;;;;;;;;;15.41;63.92;101111.41;5071021;28;19965;-84
2023/04/18 00:26:24;;;;;;;;;;;;;;;15.46;63.67;101104.59;5069762;28;20309;-83
2023/04/18 00:28:49;;;;;;;;;;;;;;;15.46;63.46;101106.31;5065075;28;19912;-83
2023/04/18 00:31:15;;;;;;;;;;;;;;;15.47;63.57;101110.75;5068490;28;19951;-84
2023/04/18 00:33:40;;;;;;;;;;;;;;;15.41;63.93;101090.34;5069780;28;20374;-83
2023/04/18 00:36:05;;;;;;;;;;;;;;;15.43;63.74;101090.41;5060371;28;20424;-83
2023/04/18 00:38:31;;;;;;;;;;;;;;;15.44;63.73;101097.47;5070858;28;20015;-84
2023/04/18 00:40:56;;;;;;;;;;;;;;;15.41;63.75;101098.25;5071009;28;19958;-85
2023/04/18 00:43:22;;;;;;;;;;;;;;;15.44;63.57;101097.47;5070232;28;20074;-85
2023/04/18 00:45:47;;;;;;;;;;;;;;;15.44;63.76;101094.84;5048358;28;20451;-83
2023/04/18 00:48:13;;;;;;;;;;;;;;;15.41;63.60;101082.47;5081730;28;20325;-84
2023/04/18 00:50:40;;;;;;;;;;;;;;;15.42;63.62;101070.19;5091285;28;20380;-84
2023/04/18 00:53:05;;;;;;;;;;;;;;;15.44;63.48;101082.56;5072881;28;19907;-83
2023/04/18 00:55:30;;;;;;;;;;;;;;;15.42;63.80;101092.13;5089485;28;20397;-85
2023/04/18 00:57:56;;;;;;;;;;;;;;;15.42;63.54;101092.13;5090040;28;20694;-84
2023/04/18 01:00:21;;;;;;;;;;;;;;;15.40;63.56;101096.44;5091152;28;20457;-84
2023/04/18 01:02:51;;;;;;;;;;;;;;;15.41;63.58;101095.63;5069588;28;20381;-83
2023/04/18 01:05:17;;;;;;;;;;;;;;;15.44;63.73;101105.38;5089802;28;19958;-84
2023/04/18 01:07:42;;;;;;;;;;;;;;;15.42;63.52;101107.03;5094454;28;19951;-84
2023/04/18 01:10:08;;;;;;;;;;;;;;;15.41;63.71;101098.25;5090977;28;20470;-84
2023/04/18 01:12:33;;;;;;;;;;;;;;;15.40;63.57;101067.50;5077652;28;20381;-84
2023/04/18 01:14:59;;;;;;;;;;;;;;;15.40;63.68;101056.06;5088040;28;19912;-84
2023/04/18 01:17:27;;;;;;;;;;;;;;;15.39;63.70;101057.81;5091007;28;19969;-83
2023/04/18 01:19:52;;;;;;;;;;;;;;;15.40;63.69;101090.28;5090806;28;19915;-83
2023/04/18 01:22:18;;;;;;;;;;;;;;;15.37;63.77;101088.44;5081499;28;20324;-83
2023/04/18 01:24:44;;;;;;;;;;;;;;;15.36;63.80;101078.75;5072760;28;19912;-83
2023/04/18 01:27:12;;;;;;;;;;;;;;;15.41;63.59;101081.56;5090393;28;19918;-85
2023/04/18 01:29:38;;;;;;;;;;;;;;;15.39;63.67;101072.72;5089364;28;19908;-84
2023/04/18 01:32:03;;;;;;;;;;;;;;;15.37;63.55;101090.19;5088625;28;19944;-83
2023/04/18 01:34:29;;;;;;;;;;;;;;;15.36;63.59;101078.75;5090712;28;19956;-84
2023/04/18 01:36:54;;;;;;;;;;;;;;;15.39;63.54;101067.47;5092909;28;20308;-85
2023/04/18 01:39:20;;;;;;;;;;;;;;;15.37;63.67;101056.88;5094436;28;20282;-85
2023/04/18 01:41:45;;;;;;;;;;;;;;;15.36;63.56;101054.16;5093608;28;20381;-85
2023/04/18 01:44:10;;;;;;;;;;;;;;;15.36;63.87;101057.69;5094260;28;19915;-85
2023/04/18 01:46:36;;;;;;;;;;;;;;;15.37;63.60;101050.72;5094010;28;20669;-85
2023/04/18 01:49:02;;;;;;;;;;;;;;;15.35;63.76;101049.75;5092974;28;20426;-84
2023/04/18 01:51:27;;;;;;;;;;;;;;;15.36;63.67;101059.44;5092260;28;19916;-86
2023/04/18 01:53:52;;;;;;;;;;;;;;;15.33;63.81;101057.56;5093058;28;20179;-84
2023/04/18 01:56:18;;;;;;;;;;;;;;;15.33;63.78;101060.22;5075938;28;19924;-83
2023/04/18 01:58:43;;;;;;;;;;;;;;;15.33;63.75;101060.22;5075176;28;20420;-83
2023/04/18 02:01:09;;;;;;;;;;;;;;;15.33;63.62;101062.84;5072849;28;20336;-83
2023/04/18 02:03:34;;;;;;;;;;;;;;;15.30;63.73;101067.97;5093657;28;19916;-84
2023/04/18 02:06:00;;;;;;;;;;;;;;;15.29;63.90;101066.19;5096743;28;20348;-83
2023/04/18 02:08:26;;;;;;;;;;;;;;;15.29;63.87;101057.41;5096484;28;19957;-83
2023/04/18 02:10:51;;;;;;;;;;;;;;;15.29;63.87;101066.19;5089410;28;20453;-83
2023/04/18 02:13:16;;;;;;;;;;;;;;;15.30;63.71;101057.44;5093225;28;19965;-83
2023/04/18 02:15:45;;;;;;;;;;;;;;;15.27;63.81;101054.72;5086076;28;20386;-83
2023/04/18 02:18:11;;;;;;;;;;;;;;;15.29;63.80;101055.66;5093650;28;20417;-83
2023/04/18 02:20:36;;;;;;;;;;;;;;;15.25;63.94;101057.25;5092604;28;19995;-83
2023/04/18 02:23:02;;;;;;;;;;;;;;;15.27;63.89;101062.59;5092514;28;20014;-83
2023/04/18 02:25:28;;;;;;;;;;;;;;;15.27;63.88;101059.97;5092228;28;20381;-83
2023/04/18 02:27:54;;;;;;;;;;;;;;;15.25;63.78;101056.38;5075064;28;19916;-83
2023/04/18 02:30:19;;;;;;;;;;;;;;;15.25;63.79;101056.38;5091169;28;20490;-83
2023/04/18 02:32:44;;;;;;;;;;;;;;;15.24;63.93;101060.75;5093296;28;19930;-85
2023/04/18 02:35:11;;;;;;;;;;;;;;;15.26;63.84;101064.34;5093538;28;19912;-85
2023/04/18 02:37:37;;;;;;;;;;;;;;;15.24;63.88;101066.00;5087532;28;20000;-83
2023/04/18 02:40:03;;;;;;;;;;;;;;;15.23;63.95;101068.56;5092065;28;19988;-83
2023/04/18 02:42:29;;;;;;;;;;;;;;;15.23;63.84;101072.09;5092031;28;19908;-83
2023/04/18 02:44:55;;;;;;;;;;;;;;;15.22;63.94;101067.69;5083201;28;19915;-85
2023/04/18 02:47:20;;;;;;;;;;;;;;;15.24;64.00;101068.63;5063032;28;19924;-85
2023/04/18 02:49:46;;;;;;;;;;;;;;;15.21;64.04;101067.63;5072904;28;19909;-85
2023/04/18 02:52:11;;;;;;;;;;;;;;;15.19;64.08;101075.44;5071653;28;20437;-83
2023/04/18 02:54:36;;;;;;;;;;;;;;;15.20;63.96;101079.00;5071911;28;19916;-85
2023/04/18 02:57:02;;;;;;;;;;;;;;;15.20;64.08;101087.78;5072087;28;20305;-84
2023/04/18 02:59:27;;;;;;;;;;;;;;;15.21;63.98;101086.03;5068002;28;20412;-84
2023/04/18 03:01:53;;;;;;;;;;;;;;;15.18;64.07;101086.81;5072459;28;20461;-84
2023/04/18 03:04:18;;;;;;;;;;;;;;;15.19;63.90;101082.44;5071494;28;19915;-84
2023/04/18 03:06:44;;;;;;;;;;;;;;;15.21;63.87;101091.28;5071943;28;20397;-84
2023/04/18 03:09:09;;;;;;;;;;;;;;;15.20;63.76;101090.41;5071380;28;19995;-84
2023/04/18 03:11:35;;;;;;;;;;;;;;;15.18;63.99;101089.44;5072539;28;20531;-84
2023/04/18 03:14:00;;;;;;;;;;;;;;;15.18;64.01;101096.44;5072330;28;20363;-85
2023/04/18 03:16:25;;;;;;;;;;;;;;;15.16;64.11;101091.09;5059800;28;20396;-85
2023/04/18 03:18:51;;;;;;;;;;;;;;;15.16;63.79;101090.22;5063082;28;19916;-85
2023/04/18 03:21:16;;;;;;;;;;;;;;;15.17;63.94;101092.88;5072233;28;19912;-84
2023/04/18 03:23:42;;;;;;;;;;;;;;;15.13;64.01;101096.22;5072487;28;20409;-84
2023/04/18 03:26:07;;;;;;;;;;;;;;;15.13;64.07;101093.59;5067286;28;19908;-84
2023/04/18 03:28:33;;;;;;;;;;;;;;;15.13;63.93;101090.97;5047842;28;19912;-85
2023/04/18 03:30:59;;;;;;;;;;;;;;;15.14;63.97;101095.41;5071849;28;19912;-84
2023/04/18 03:33:24;;;;;;;;;;;;;;;15.13;64.09;101093.59;5059455;28;19909;-84
2023/04/18 03:35:49;;;;;;;;;;;;;;;15.15;64.04;101101.56;5068550;28;19919;-85
2023/04/18 03:38:15;;;;;;;;;;;;;;;15.12;63.96;101110.22;5069577;28;19919;-85
2023/04/18 03:40:43;;;;;;;;;;;;;;;15.11;64.11;101108.41;5069843;28;20370;-84
2023/04/18 03:43:08;;;;;;;;;;;;;;;15.11;63.94;101105.78;5054698;28;20400;-84
2023/04/18 03:45:34;;;;;;;;;;;;;;;15.10;64.15;101106.63;5041384;28;20010;-84
2023/04/18 03:47:59;;;;;;;;;;;;;;;15.09;64.16;101120.66;5070617;28;19970;-84
2023/04/18 03:50:24;;;;;;;;;;;;;;;15.10;64.29;101125.06;5070990;28;19912;-84
2023/04/18 03:52:51;;;;;;;;;;;;;;;15.07;64.01;101130.19;5069286;28;19985;-84
2023/04/18 03:55:17;;;;;;;;;;;;;;;15.10;64.03;101116.28;5065021;28;19970;-83
2023/04/18 03:57:42;;;;;;;;;;;;;;;15.09;64.20;101118.00;5058943;28;19920;-85
2023/04/18 04:00:09;;;;;;;;;;;;;;;15.10;64.17;101130.31;5066794;28;20297;-84
2023/04/18 04:02:34;;;;;;;;;;;;;;;15.09;64.12;101131.16;5070244;28;19916;-85
2023/04/18 04:05:01;;;;;;;;;;;;;;;15.07;64.17;101122.31;5060491;28;20443;-85
2023/04/18 04:07:26;;;;;;;;;;;;;;;15.09;64.00;101119.72;5070550;28;19908;-84
2023/04/18 04:09:52;;;;;;;;;;;;;;;15.06;64.28;101117.88;5071187;28;19939;-84
2023/04/18 04:12:17;;;;;;;;;;;;;;;15.04;64.13;101123.06;5053985;28;20009;-84
2023/04/18 04:14:43;;;;;;;;;;;;;;;15.06;64.22;101124.00;5053384;28;20054;-84
2023/04/18 04:17:08;;;;;;;;;;;;;;;15.03;64.24;101123.91;5071023;28;20373;-84
2023/04/18 04:19:33;;;;;;;;;;;;;;;15.04;64.23;101125.69;5071138;28;20409;-83
2023/04/18 04:21:59;;;;;;;;;;;;;;;15.03;64.50;101128.28;5071287;28;19908;-84
2023/04/18 04:24:24;;;;;;;;;;;;;;;15.06;64.44;101131.03;5070785;28;20416;-85
2023/04/18 04:26:50;;;;;;;;;;;;;;;15.02;64.44;101131.72;5039778;28;19947;-84
2023/04/18 04:29:16;;;;;;;;;;;;;;;15.04;64.22;101132.69;5070824;28;20441;-84
2023/04/18 04:31:41;;;;;;;;;;;;;;;15.02;64.28;101136.97;5067941;28;19919;-84
2023/04/18 04:34:07;;;;;;;;;;;;;;;14.98;64.59;101119.28;5067463;28;20407;-84
2023/04/18 04:36:33;;;;;;;;;;;;;;;15.00;64.31;101130.75;5066864;28;20028;-83
2023/04/18 04:38:59;;;;;;;;;;;;;;;15.02;64.27;101139.63;5063581;28;19999;-84
2023/04/18 04:41:26;;;;;;;;;;;;;;;15.01;64.19;101149.25;5062230;28;19912;-87
2023/04/18 04:43:52;;;;;;;;;;;;;;;15.02;64.39;101147.50;5068521;28;19919;-82
2023/04/18 04:46:18;;;;;;;;;;;;;;;15.01;64.37;101146.63;5050197;28;19974;-86
2023/04/18 04:48:44;;;;;;;;;;;;;;;15.01;64.31;101143.09;5063707;28;19924;-86
2023/04/18 04:51:09;;;;;;;;;;;;;;;15.02;64.39;101153.66;5070138;28;19912;-87
2023/04/18 04:53:35;;;;;;;;;;;;;;;15.01;64.14;101149.25;5061151;28;19916;-86
2023/04/18 04:56:00;;;;;;;;;;;;;;;14.99;64.37;101144.75;5063237;28;20369;-86
2023/04/18 04:58:25;;;;;;;;;;;;;;;14.98;64.43;101146.47;5065411;28;19999;-86
2023/04/18 05:00:52;;;;;;;;;;;;;;;14.97;64.54;101154.31;5056337;28;19964;-84
2023/04/18 05:03:17;;;;;;;;;;;;;;;14.98;64.35;101153.47;5075341;28;19999;-86
2023/04/18 05:05:43;;;;;;;;;;;;;;;14.98;64.51;101156.09;5067344;28;19995;-86
2023/04/18 05:08:08;;;;;;;;;;;;;;;14.96;64.33;101157.75;5059365;28;19928;-86
2023/04/18 05:10:36;;;;;;;;;;;;;;;14.97;64.40;101149.06;5067280;28;20404;-86
2023/04/18 05:13:02;;;;;;;;;;;;;;;14.96;64.50;101155.13;5052099;28;20348;-87
2023/04/18 05:15:28;;;;;;;;;;;;;;;14.95;64.33;101151.63;5073824;28;19916;-86
2023/04/18 05:17:53;;;;;;;;;;;;;;;14.94;64.40;101149.78;5064766;28;19999;-86
2023/04/18 05:20:19;;;;;;;;;;;;;;;14.93;64.46;101153.28;5063441;28;19952;-86
2023/04/18 05:22:47;;;;;;;;;;;;;;;14.95;64.17;101148.09;5071819;28;20003;-86
2023/04/18 05:25:13;;;;;;;;;;;;;;;14.94;64.20;101141.03;5056221;28;19920;-87
2023/04/18 05:27:38;;;;;;;;;;;;;;;14.95;64.54;101140.19;5074528;28;19966;-87
2023/04/18 05:30:04;;;;;;;;;;;;;;;14.92;64.39;101135.72;5069914;28;19923;-86
2023/04/18 05:32:30;;;;;;;;;;;;;;;14.93;64.47;101132.25;5070360;28;19987;-87
2023/04/18 05:34:58;;;;;;;;;;;;;;;14.92;64.39;101137.44;5067639;28;19924;-86
2023/04/18 05:37:24;;;;;;;;;;;;;;;14.94;64.57;101138.38;5060969;28;20025;-86
2023/04/18 05:39:49;;;;;;;;;;;;;;;14.93;64.46;101141.88;5071579;28;19947;-86
2023/04/18 05:42:15;;;;;;;;;;;;;;;14.90;64.66;101134.75;5077361;28;20403;-86
2023/04/18 05:44:40;;;;;;;;;;;;;;;14.93;64.48;101139.25;5079868;28;20366;-87
2023/04/18 05:47:05;;;;;;;;;;;;;;;14.90;64.55;101136.47;5043543;28;20378;-90
2023/04/18 05:49:31;;;;;;;;;;;;;;;14.91;64.74;101148.78;5094718;28;19908;-90
2023/04/18 05:51:57;;;;;;;;;;;;;;;14.89;64.58;101143.47;5093721;28;19911;-87
2023/04/18 05:54:23;;;;;;;;;;;;;;;14.86;64.52;101144.22;5093160;28;19912;-87
2023/04/18 05:56:50;;;;;;;;;;;;;;;14.91;64.63;101154.06;5092864;28;20023;-87
2023/04/18 05:59:16;;;;;;;;;;;;;;;14.84;64.56;101155.53;5076169;28;19998;-87
2023/04/18 06:01:41;;;;;;;;;;;;;;;14.84;64.58;101148.53;5093481;28;19930;-87
2023/04/18 06:04:07;;;;;;;;;;;;;;;14.86;64.76;101141.59;5093794;28;20369;-86
2023/04/18 06:06:33;;;;;;;;;;;;;;;14.84;64.65;101152.91;5093639;28;19965;-86
2023/04/18 06:08:59;;;;;;;;;;;;;;;14.84;64.72;101152.91;5093017;28;19908;-86
2023/04/18 06:11:24;;;;;;;;;;;;;;;14.84;64.55;101151.16;5075552;28;20370;-86
2023/04/18 06:13:50;;;;;;;;;;;;;;;14.81;64.83;101153.63;5093974;28;19908;-86
2023/04/18 06:16:15;;;;;;;;;;;;;;;14.86;64.76;101159.13;5075415;28;19920;-86
2023/04/18 06:18:40;;;;;;;;;;;;;;;14.83;64.76;101145.81;5093755;28;19915;-84
2023/04/18 06:21:06;;;;;;;;;;;;;;;14.82;64.73;101154.56;5091780;28;19994;-86
2023/04/18 06:23:31;;;;;;;;;;;;;;;14.80;64.89;101156.22;5086363;28;20616;-86
2023/04/18 06:25:57;;;;;;;;;;;;;;;14.80;64.74;101153.59;5075218;28;19915;-86
2023/04/18 06:28:22;;;;;;;;;;;;;;;14.82;64.58;101159.81;5092374;28;20373;-86
2023/04/18 06:30:48;;;;;;;;;;;;;;;14.83;64.46;101166.84;5092581;28;19968;-84
2023/04/18 06:33:13;;;;;;;;;;;;;;;14.85;64.77;101165.19;5092823;28;19927;-87
2023/04/18 06:35:39;;;;;;;;;;;;;;;14.85;64.39;101167.81;5093101;28;20381;-86
2023/04/18 06:38:04;;;;;;;;;;;;;;;14.84;64.70;101168.66;5074952;28;20385;-86
2023/04/18 06:40:30;;;;;;;;;;;;;;;14.81;64.83;101164.16;5103410;28;19915;-86
2023/04/18 06:42:55;;;;;;;;;;;;;;;14.83;64.69;101172.13;5093144;28;19907;-86
2023/04/18 06:45:21;;;;;;;;;;;;;;;14.81;64.62;101164.16;5093469;28;19915;-86
2023/04/18 06:47:46;;;;;;;;;;;;;;;14.85;64.59;101178.34;5090642;28;19926;-86
2023/04/18 06:50:13;;;;;;;;;;;;;;;14.83;64.81;101175.63;5078896;28;20313;-86
2023/04/18 06:52:44;;;;;;;;;;;;;;;14.82;64.78;101183.47;5085405;28;19970;-86
2023/04/18 06:55:10;;;;;;;;;;;;;;;14.80;65.06;101185.16;5078582;28;19913;-86
2023/04/18 06:57:36;;;;;;;;;;;;;;;14.82;64.59;101196.63;5090659;28;19959;-86
2023/04/18 07:00:02;;;;;;;;;;;;;;;14.82;64.57;101192.25;5073450;28;19946;-86
2023/04/18 07:02:28;;;;;;;;;;;;;;;14.82;64.70;101202.78;5087368;28;19918;-87
2023/04/18 07:04:53;;;;;;;;;;;;;;;14.83;64.53;101207.19;5099453;28;19911;-87
2023/04/18 07:07:19;;;;;;;;;;;;;;;14.82;64.72;101202.78;5092945;28;20389;-87
2023/04/18 07:09:44;;;;;;;;;;;;;;;14.82;64.68;101210.66;5106079;28;20283;-87
2023/04/18 07:12:10;;;;;;;;;;;;;;;14.78;64.95;101219.25;5065849;28;19915;-88
2023/04/18 07:14:35;;;;;;;;;;;;;;;14.77;64.99;101220.06;5087741;28;19912;-86
2023/04/18 07:17:00;;;;;;;;;;;;;;;14.80;64.78;101220.22;5091269;28;20282;-86
2023/04/18 07:19:26;;;;;;;;;;;;;;;14.79;65.00;101223.66;5074478;28;20433;-88
2023/04/18 07:21:54;;;;;;;;;;;;;;;14.79;64.88;101230.66;5079949;28;20572;-88
2023/04/18 07:24:22;;;;;;;;;;;;;;;14.76;64.99;101227.91;5073777;28;19908;-88
2023/04/18 07:26:48;;;;;;;;;;;;;;;14.72;64.85;101221.59;5091464;28;19912;-89
2023/04/18 07:29:13;;;;;;;;;;;;;;;14.71;64.93;101219.81;5086439;28;20434;-86
2023/04/18 07:31:39;;;;;;;;;;;;;;;14.72;65.19;101224.22;5080085;28;19961;-87
2023/04/18 07:34:04;;;;;;;;;;;;;;;14.74;65.11;101219.94;5089068;28;20391;-87
2023/04/18 07:36:30;;;;;;;;;;;;;;;14.73;65.09;101217.22;5086778;28;19919;-86
2023/04/18 07:38:55;;;;;;;;;;;;;;;14.76;64.97;101217.41;5074715;28;19908;-87
2023/04/18 07:41:21;;;;;;;;;;;;;;;14.70;65.04;101228.53;5092205;28;19943;-87
2023/04/18 07:43:49;;;;;;;;;;;;;;;14.72;65.08;101228.59;5084244;28;19915;-88
2023/04/18 07:46:15;;;;;;;;;;;;;;;14.67;65.21;101228.41;5090177;28;19990;-87
2023/04/18 07:48:40;;;;;;;;;;;;;;;14.65;65.05;101228.31;5090477;28;20034;-87
2023/04/18 07:51:06;;;;;;;;;;;;;;;14.65;65.23;101228.31;5084538;28;19909;-87
2023/04/18 07:53:31;;;;;;;;;;;;;;;14.66;65.26;101237.09;5086248;28;19908;-87
2023/04/18 07:55:56;;;;;;;;;;;;;;;14.66;65.27;101230.09;5086999;28;19916;-87
2023/04/18 07:58:22;;;;;;;;;;;;;;;14.66;65.40;101235.34;5087796;28;20419;-87
2023/04/18 08:00:47;;;;;;;;;;;;;;;14.70;65.15;101246.03;5090531;28;19972;-87
2023/04/18 08:03:13;;;;;;;;;;;;;;;14.66;65.14;101247.63;5091466;28;19931;-87
2023/04/18 08:05:39;;;;;;;;;;;;;;;14.58;65.50;101257.81;5091991;28;20404;-87
2023/04/18 08:08:05;;;;;;;;;;;;;;;14.68;65.13;101251.22;5091609;28;19912;-87
2023/04/18 08:10:30;;;;;;;;;;;;;;;14.71;65.17;101255.69;5090700;28;19908;-87
2023/04/18 08:12:56;;;;;;;;;;;;;;;14.61;65.55;101260.56;5091484;28;19914;-86
2023/04/18 08:15:21;;;;;;;;;;;;;;;14.66;65.49;101256.38;5091716;28;20673;-87
2023/04/18 08:17:47;;;;;;;;;;;;;;;14.67;65.42;101238.91;5090455;28;19959;-87
2023/04/18 08:20:14;;;;;;;;;;;;;;;14.66;65.49;101240.63;5089316;28;19908;-85
2023/04/18 08:22:40;;;;;;;;;;;;;;;14.65;65.46;101243.22;5071453;28;19908;-86
2023/04/18 08:25:05;;;;;;;;;;;;;;;14.60;65.53;101231.56;5088945;28;19915;-87
2023/04/18 08:27:31;;;;;;;;;;;;;;;14.57;65.91;101237.59;5089853;28;19908;-87
2023/04/18 08:29:57;;;;;;;;;;;;;;;14.60;65.70;101228.94;5090362;28;19947;-86
2023/04/18 08:32:22;;;;;;;;;;;;;;;14.60;65.71;101223.69;5089627;28;19935;-87
2023/04/18 08:34:47;;;;;;;;;;;;;;;14.59;65.46;101219.28;5086542;28;19912;-87
2023/04/18 08:37:13;;;;;;;;;;;;;;;14.59;65.49;101214.91;5088811;28;19912;-87
2023/04/18 08:39:38;;;;;;;;;;;;;;;14.58;65.47;101221.00;5078352;28;20065;-88
2023/04/18 08:42:04;;;;;;;;;;;;;;;14.58;65.35;101231.53;5079016;28;19912;-87
2023/04/18 08:44:29;;;;;;;;;;;;;;;14.60;65.40;101245.59;5083617;28;19951;-87
2023/04/18 08:46:55;;;;;;;;;;;;;;;14.60;65.52;101244.72;5089559;28;19912;-87
2023/04/18 08:49:21;;;;;;;;;;;;;;;14.60;65.37;101242.06;5087513;28;20341;-88
2023/04/18 08:51:46;;;;;;;;;;;;;;;14.62;65.45;101235.16;5056609;28;19940;-88
2023/04/18 08:54:15;;;;;;;;;;;;;;;14.62;65.51;101233.44;5089058;28;19974;-87
2023/04/18 08:56:41;;;;;;;;;;;;;;;14.61;65.41;101217.59;5089136;28;20404;-87
2023/04/18 08:59:06;;;;;;;;;;;;;;;14.60;65.98;101214.06;5078223;28;19912;-87
2023/04/18 09:01:51;;;;;;;;;;;;;;;14.59;65.82;101220.16;5084905;28;19923;-87
2023/04/18 09:04:33;;;;;;;;;;;;;;;14.68;65.55;101229.28;5082480;28;19920;-87
2023/04/18 09:06:58;;;;;;;;;;;;;;;14.68;65.13;101217.03;5088239;28;19919;-87
2023/04/18 09:09:26;;;;;;;;;;;;;;;14.65;65.58;101209.91;5088921;28;20337;-87
2023/04/18 09:12:13;;;;;;;;;;;;;;;14.69;65.67;101199.53;5088721;28;19920;-87
2023/04/18 09:14:43;;;;;;;;;;;;;;;14.70;65.49;101198.72;5086453;28;19912;-88
2023/04/18 09:17:13;;;;;;;;;;;;;;;14.73;65.33;101207.66;5070909;28;19908;-87
2023/04/18 09:19:47;;;;;;;;;;;;;;;14.72;65.46;101210.19;5069487;28;20404;-87
2023/04/18 09:22:13;;;;;;;;;;;;;;;14.73;65.42;101219.88;5071556;28;19976;-87
2023/04/18 09:24:38;;;;;;;;;;;;;;;14.72;65.69;101226.88;5080089;28;19912;-86
2023/04/18 09:27:05;;;;;;;;;;;;;;;14.69;65.79;101221.47;5071412;28;19908;-87
2023/04/18 09:29:42;;;;;;;;;;;;;;;14.68;66.05;101214.41;5072959;28;20009;-87
2023/04/18 09:32:07;;;;;;;;;;;;;;;14.71;65.93;101208.38;5090589;28;19920;-86
2023/04/18 09:34:33;;;;;;;;;;;;;;;14.65;65.91;101209.91;5068033;28;19920;-87
2023/04/18 09:37:08;;;;;;;;;;;;;;;14.65;66.06;101212.56;5075425;28;20403;-88
2023/04/18 09:39:34;;;;;;;;;;;;;;;14.62;66.21;101211.50;5087610;28;19961;-87
2023/04/18 09:42:00;;;;;;;;;;;;;;;14.65;65.87;101225.69;5090737;28;19930;-87
2023/04/18 09:44:25;;;;;;;;;;;;;;;14.64;66.08;101226.50;5089492;28;20399;-87
2023/04/18 09:46:50;;;;;;;;;;;;;;;14.65;66.26;101219.53;5089326;28;19915;-87
2023/04/18 09:49:16;;;;;;;;;;;;;;;14.66;66.01;101211.69;5067735;28;20431;-87
2023/04/18 09:51:45;;;;;;;;;;;;;;;14.72;65.85;101200.56;5084812;28;20386;-87
2023/04/18 09:54:21;;;;;;;;;;;;;;;14.67;66.15;101207.38;5084491;28;20436;-87
2023/04/18 09:56:49;;;;;;;;;;;;;;;14.67;66.01;101207.38;5070061;28;20306;-87
2023/04/18 09:59:15;;;;;;;;;;;;;;;14.69;66.15;101197.81;5088095;28;19912;-87
2023/04/18 10:01:43;;;;;;;;;;;;;;;14.64;66.43;101212.47;5088320;28;19934;-87
2023/04/18 10:04:09;;;;;;;;;;;;;;;14.64;66.39;101209.84;5087871;28;19908;-87
2023/04/18 10:06:38;;;;;;;;;;;;;;;14.64;66.49;101215.09;5088043;28;19919;-88
2023/04/18 10:09:04;;;;;;;;;;;;;;;14.65;66.69;101209.03;5087951;28;19963;-87
2023/04/18 10:11:33;;;;;;;;;;;;;;;14.67;66.15;101215.25;5087917;28;19908;-86
2023/04/18 10:14:00;;;;;;;;;;;;;;;14.68;66.27;101219.66;5087916;28;19995;-87
2023/04/18 10:16:25;;;;;;;;;;;;;;;14.74;66.09;101224.31;5087293;28;19970;-86
2023/04/18 10:18:51;;;;;;;;;;;;;;;14.71;66.36;101218.91;5087902;28;19908;-87
2023/04/18 10:21:16;;;;;;;;;;;;;;;14.73;66.36;101225.13;5072163;28;20381;-87
2023/04/18 10:23:42;;;;;;;;;;;;;;;14.75;66.54;101215.56;5087821;28;20381;-86
2023/04/18 10:26:08;;;;;;;;;;;;;;;14.81;66.02;101216.75;5072024;28;19912;-87
2023/04/18 10:28:52;;;;;;;;;;;;;;;14.83;65.91;101209.81;5072515;28;20328;-87
2023/04/18 10:31:17;;;;;;;;;;;;;;;14.85;66.17;101212.53;5050894;28;19920;-86
2023/04/18 10:33:51;;;;;;;;;;;;;;;14.83;66.23;101204.56;5065784;28;19912;-85
2023/04/18 10:36:18;;;;;;;;;;;;;;;14.81;66.31;101200.06;5070954;28;19913;-87
2023/04/18 10:39:13;;;;;;;;;;;;;;;14.81;65.78;101203.59;5072352;28;20332;-87
2023/04/18 10:41:47;;;;;;;;;;;;;;;14.71;65.87;101172.50;5060154;28;19916;-87
2023/04/18 10:44:13;;;;;;;;;;;;;;;14.79;66.22;101193.84;5087823;28;20006;-87
2023/04/18 10:46:38;;;;;;;;;;;;;;;14.78;66.34;101192.06;5087795;28;19908;-87
2023/04/18 10:49:16;;;;;;;;;;;;;;;14.78;65.98;101186.81;5072161;28;19943;-86
2023/04/18 10:51:43;;;;;;;;;;;;;;;14.75;66.06;101184.94;5071872;28;19955;-87
2023/04/18 10:54:09;;;;;;;;;;;;;;;14.80;66.03;101174.63;5053937;28;19908;-86
2023/04/18 10:56:34;;;;;;;;;;;;;;;14.82;66.07;101178.22;5070652;28;19912;-86
2023/04/18 10:59:00;;;;;;;;;;;;;;;14.80;66.13;101162.38;5071812;28;19914;-87
2023/04/18 11:01:27;;;;;;;;;;;;;;;14.81;66.19;101177.31;5070190;28;19994;-87
2023/04/18 11:03:55;;;;;;;;;;;;;;;14.84;65.97;101179.19;5053522;28;19912;-86
2023/04/18 11:06:21;;;;;;;;;;;;;;;14.85;66.32;101170.44;5053740;28;19909;-86
2023/04/18 11:08:48;;;;;;;;;;;;;;;14.86;66.17;101167.91;5053856;28;19912;-86
2023/04/18 11:11:14;;;;;;;;;;;;;;;14.88;66.01;101174.94;5053631;28;20516;-86
2023/04/18 11:13:58;;;;;;;;;;;;;;;14.89;65.99;101163.59;5070776;28;19915;-86
2023/04/18 11:16:30;;;;;;;;;;;;;;;14.89;66.04;101169.75;5070093;28;20030;-86
2023/04/18 11:18:56;;;;;;;;;;;;;;;14.91;65.91;101164.56;5053486;28;19938;-86
2023/04/18 11:21:26;;;;;;;;;;;;;;;14.89;65.89;101161.88;5071072;28;19908;-87
2023/04/18 11:23:52;;;;;;;;;;;;;;;14.90;65.97;101162.75;5069974;28;19985;-86
2023/04/18 11:26:18;;;;;;;;;;;;;;;14.91;65.79;101161.94;5069868;28;19912;-86
2023/04/18 11:28:49;;;;;;;;;;;;;;;14.95;65.81;101153.34;5071653;28;20011;-86
2023/04/18 11:31:15;;;;;;;;;;;;;;;14.92;65.84;101140.97;5064765;28;20483;-87
2023/04/18 11:33:40;;;;;;;;;;;;;;;14.94;65.67;101139.28;5064155;28;19908;-86
2023/04/18 11:36:06;;;;;;;;;;;;;;;14.98;65.82;101143.84;5071961;28;19919;-87
2023/04/18 11:38:32;;;;;;;;;;;;;;;14.92;66.07;101135.72;5070665;28;20378;-87
2023/04/18 11:40:57;;;;;;;;;;;;;;;14.90;66.11;101140.00;5071426;28;20033;-87
2023/04/18 11:43:23;;;;;;;;;;;;;;;14.91;65.81;101133.91;5071945;28;20366;-86
2023/04/18 11:45:55;;;;;;;;;;;;;;;14.91;65.89;101125.13;5070528;28;20132;-86
2023/04/18 11:48:21;;;;;;;;;;;;;;;15.01;65.57;101109.78;5053805;28;19944;-86
2023/04/18 11:50:47;;;;;;;;;;;;;;;15.05;65.56;101109.09;5070272;28;19908;-87
2023/04/18 11:53:12;;;;;;;;;;;;;;;15.07;65.56;101106.53;5070567;28;19908;-87
2023/04/18 11:55:38;;;;;;;;;;;;;;;15.06;65.50;101096.81;5072155;28;20381;-87
2023/04/18 11:58:04;;;;;;;;;;;;;;;14.99;65.83;101114.09;5071671;28;20347;-86
2023/04/18 12:00:37;;;;;;;;;;;;;;;14.99;65.96;101127.25;5070860;28;19947;-86
2023/04/18 12:03:04;;;;;;;;;;;;;;;15.07;65.85;101122.31;5072738;28;20377;-86
2023/04/18 12:05:33;;;;;;;;;;;;;;;15.04;65.81;101128.31;5071864;28;19916;-86
2023/04/18 12:08:05;;;;;;;;;;;;;;;15.07;65.79;101124.94;5071520;28;19908;-85
2023/04/18 12:10:30;;;;;;;;;;;;;;;15.16;65.51;101111.25;5072685;28;19931;-87
2023/04/18 12:12:59;;;;;;;;;;;;;;;15.17;65.37;101106.03;5071723;28;20391;-87
2023/04/18 12:15:28;;;;;;;;;;;;;;;15.10;65.45;101104.00;5054984;28;20010;-86
2023/04/18 12:18:00;;;;;;;;;;;;;;;15.02;65.94;101092.28;5071012;28;19915;-86
2023/04/18 12:20:45;;;;;;;;;;;;;;;15.04;65.85;101085.34;5070568;28;19919;-86
2023/04/18 12:23:30;;;;;;;;;;;;;;;15.07;65.68;101078.50;5071030;28;19915;-85
2023/04/18 12:26:02;;;;;;;;;;;;;;;15.03;65.88;101073.94;5054548;28;19956;-85
2023/04/18 12:28:28;;;;;;;;;;;;;;;15.07;65.84;101080.22;5059615;28;19913;-84
2023/04/18 12:30:54;;;;;;;;;;;;;;;15.08;65.63;101079.38;5070572;28;19957;-85
2023/04/18 12:33:19;;;;;;;;;;;;;;;15.05;65.86;101087.16;5070151;28;20396;-85